createdAt,value
2019-02-20T00:00:11.621Z,17.57
2019-02-20T00:02:40.001Z,19.27
2019-02-20T00:05:09.174Z,19.80
2019-02-20T00:07:37.561Z,21.53
2019-02-20T00:10:06.741Z,18.17
2019-02-20T00:12:41.545Z,20.43
2019-02-20T00:15:09.994Z,19.40
2019-02-20T00:17:38.450Z,17.67
2019-02-20T00:20:11.137Z,14.83
2019-02-20T00:22:40.455Z,15.27
2019-02-20T00:25:09.510Z,13.03
2019-02-20T00:27:37.909Z,15.00
2019-02-20T00:30:20.269Z,15.50
2019-02-20T00:32:51.839Z,14.33
2019-02-20T00:35:25.805Z,14.27
2019-02-20T00:37:56.882Z,14.50
2019-02-20T00:40:25.273Z,13.90
2019-02-20T00:42:53.769Z,13.73
2019-02-20T00:45:42.921Z,15.77
2019-02-20T00:48:17.372Z,13.63
2019-02-20T00:50:50.136Z,13.73
2019-02-20T00:53:22.717Z,13.30
2019-02-20T00:55:51.956Z,14.30
2019-02-20T00:58:20.347Z,14.93
2019-02-20T01:00:49.240Z,16.83
2019-02-20T01:03:20.529Z,16.03
2019-02-20T01:05:52.061Z,14.97
2019-02-20T01:08:22.133Z,14.77
2019-02-20T01:10:51.293Z,14.70
2019-02-20T01:13:21.473Z,15.47
2019-02-20T01:15:54.205Z,16.43
2019-02-20T01:18:22.601Z,15.03
2019-02-20T01:20:51.030Z,15.20
2019-02-20T01:23:31.107Z,16.97
2019-02-20T01:25:59.749Z,15.63
2019-02-20T01:28:28.151Z,16.30
2019-02-20T01:31:00.917Z,15.30
2019-02-20T01:33:33.878Z,15.37
2019-02-20T01:36:05.276Z,14.53
2019-02-20T01:38:33.738Z,15.73
2019-02-20T01:41:02.156Z,14.43
2019-02-20T01:43:30.706Z,15.40
2019-02-20T01:46:00.667Z,15.90
2019-02-20T01:48:29.061Z,16.63
2019-02-20T01:50:57.477Z,16.27
2019-02-20T01:53:27.740Z,19.00
2019-02-20T01:56:00.721Z,19.80
2019-02-20T01:58:34.895Z,20.60
2019-02-20T02:01:08.945Z,19.47
2019-02-20T02:03:43.176Z,18.70
2019-02-20T02:06:15.870Z,20.10
2019-02-20T02:08:48.569Z,19.73
2019-02-20T02:11:16.965Z,20.83
2019-02-20T02:13:45.493Z,18.63
2019-02-20T02:16:13.893Z,18.67
2019-02-20T02:18:42.289Z,17.80
2019-02-20T02:21:19.458Z,17.80
2019-02-20T02:24:01.839Z,17.93
2019-02-20T02:26:30.257Z,18.27
2019-02-20T02:29:07.134Z,18.87
2019-02-20T02:31:38.484Z,20.67
2019-02-20T02:34:14.365Z,17.50
2019-02-20T02:36:42.775Z,18.17
2019-02-20T02:39:11.157Z,18.43
2019-02-20T02:41:40.827Z,17.83
2019-02-20T02:44:11.958Z,17.13
2019-02-20T02:46:40.352Z,16.93
2019-02-20T02:49:12.050Z,15.57
2019-02-20T02:51:40.481Z,17.40
2019-02-20T02:54:12.216Z,20.73
2019-02-20T02:56:48.100Z,20.43
2019-02-20T02:59:16.741Z,18.00
2019-02-20T03:01:46.771Z,18.70
2019-02-20T03:04:15.236Z,15.87
2019-02-20T03:06:45.356Z,16.60
2019-02-20T03:09:17.154Z,16.17
2019-02-20T03:11:47.231Z,18.30
2019-02-20T03:14:18.364Z,17.27
2019-02-20T03:16:49.651Z,16.77
2019-02-20T03:19:18.062Z,16.93
2019-02-20T03:21:46.484Z,15.93
2019-02-20T03:24:17.672Z,15.80
2019-02-20T03:26:52.134Z,17.33
2019-02-20T03:29:29.509Z,18.17
2019-02-20T03:31:59.190Z,19.87
2019-02-20T03:34:29.258Z,17.90
2019-02-20T03:37:00.631Z,19.50
2019-02-20T03:39:29.095Z,24.60
2019-02-20T03:42:01.022Z,21.30
2019-02-20T03:44:31.056Z,20.43
2019-02-20T03:46:59.701Z,20.60
2019-02-20T03:49:30.649Z,20.30
2019-02-20T03:52:01.961Z,20.97
2019-02-20T03:54:30.605Z,20.13
2019-02-20T03:57:02.046Z,19.67
2019-02-20T03:59:30.428Z,22.93
2019-02-20T04:02:04.236Z,21.40
2019-02-20T04:04:32.639Z,21.60
2019-02-20T04:07:03.954Z,22.30
2019-02-20T04:09:35.402Z,25.10
2019-02-20T04:12:06.760Z,23.03
2019-02-20T04:14:37.980Z,26.30
2019-02-20T04:17:14.262Z,25.63
2019-02-20T04:19:44.552Z,22.23
2019-02-20T04:22:15.689Z,22.83
2019-02-20T04:24:52.814Z,22.63
2019-02-20T04:27:21.203Z,19.90
2019-02-20T04:29:50.117Z,18.87
2019-02-20T04:32:22.598Z,23.40
2019-02-20T04:34:51.258Z,18.33
2019-02-20T04:37:22.592Z,19.07
2019-02-20T04:39:56.444Z,18.20
2019-02-20T04:42:26.717Z,16.90
2019-02-20T04:44:55.114Z,17.30
2019-02-20T04:47:26.726Z,17.10
2019-02-20T04:50:00.054Z,16.03
2019-02-20T04:52:25.544Z,16.80
2019-02-20T04:54:54.172Z,16.93
2019-02-20T04:57:24.216Z,18.70
2019-02-20T04:59:56.412Z,17.87
2019-02-20T05:02:24.822Z,19.10
2019-02-20T05:05:03.614Z,20.33
2019-02-20T05:07:32.357Z,18.60
2019-02-20T05:10:03.351Z,21.13
2019-02-20T05:12:37.933Z,22.77
2019-02-20T05:15:07.065Z,27.13
2019-02-20T05:17:39.533Z,27.10
2019-02-20T05:20:08.966Z,32.33
2019-02-20T05:22:40.070Z,27.57
2019-02-20T05:25:13.000Z,25.97
2019-02-20T05:27:42.997Z,24.83
2019-02-20T05:30:17.709Z,23.87
2019-02-20T05:32:46.098Z,26.50
2019-02-20T05:35:17.222Z,23.17
2019-02-20T05:37:45.663Z,21.80
2019-02-20T05:40:14.049Z,19.77
2019-02-20T05:42:42.498Z,19.67
2019-02-20T05:45:11.450Z,17.07
2019-02-20T05:47:43.272Z,20.40
2019-02-20T05:50:12.217Z,20.00
2019-02-20T05:52:40.596Z,21.40
2019-02-20T05:55:10.695Z,18.47
2019-02-20T05:57:39.094Z,19.27
2019-02-20T06:00:10.814Z,19.50
2019-02-20T06:02:40.919Z,20.93
2019-02-20T06:05:09.316Z,21.97
2019-02-20T06:07:37.698Z,24.00
2019-02-20T06:10:09.148Z,20.93
2019-02-20T06:12:37.541Z,20.27
2019-02-20T06:15:10.301Z,21.10
2019-02-20T06:17:38.689Z,21.80
2019-02-20T06:20:11.199Z,21.03
2019-02-20T06:22:46.554Z,20.27
2019-02-20T06:25:16.867Z,24.33
2019-02-20T06:27:45.245Z,21.90
2019-02-20T06:30:13.777Z,23.67
2019-02-20T06:32:42.181Z,23.93
2019-02-20T06:35:13.677Z,22.47
2019-02-20T06:37:42.056Z,21.03
2019-02-20T06:40:10.521Z,25.60
2019-02-20T06:42:39.160Z,23.07
2019-02-20T06:45:09.956Z,22.67
2019-02-20T06:47:38.353Z,19.90
2019-02-20T06:50:09.170Z,17.60
2019-02-20T06:52:37.818Z,18.43
2019-02-20T06:55:09.871Z,20.40
2019-02-20T06:57:48.318Z,19.90
2019-02-20T07:00:16.729Z,19.87
2019-02-20T07:02:51.673Z,22.60
2019-02-20T07:05:33.409Z,21.73
2019-02-20T07:08:13.501Z,21.33
2019-02-20T07:11:07.893Z,24.40
2019-02-20T07:13:48.605Z,23.23
2019-02-20T07:16:33.451Z,30.47
2019-02-20T07:19:09.416Z,26.47
2019-02-20T07:22:06.678Z,31.63
2019-02-20T07:24:41.061Z,27.67
2019-02-20T07:27:52.344Z,27.63
2019-02-20T07:30:20.753Z,31.43
2019-02-20T07:32:52.034Z,26.67
2019-02-20T07:35:20.441Z,21.90
2019-02-20T07:37:48.825Z,26.67
2019-02-20T07:40:23.069Z,21.47
2019-02-20T07:42:53.101Z,27.33
2019-02-20T07:45:23.137Z,19.80
2019-02-20T07:47:55.944Z,19.63
2019-02-20T07:50:27.357Z,22.73
2019-02-20T07:52:58.455Z,23.87
2019-02-20T07:55:28.805Z,23.50
2019-02-20T07:58:00.149Z,23.43
2019-02-20T08:00:28.540Z,21.63
2019-02-20T08:02:59.761Z,21.03
2019-02-20T08:05:29.789Z,22.03
2019-02-20T08:08:03.944Z,21.57
2019-02-20T08:10:34.109Z,22.30
2019-02-20T08:13:02.751Z,24.10
2019-02-20T08:15:34.157Z,25.60
2019-02-20T08:18:05.286Z,22.43
2019-02-20T08:20:33.668Z,20.50
2019-02-20T08:23:03.708Z,22.17
2019-02-20T08:25:36.073Z,21.33
2019-02-20T08:28:04.921Z,19.03
2019-02-20T08:30:33.309Z,19.10
2019-02-20T08:33:01.696Z,17.00
2019-02-20T08:35:30.089Z,16.73
2019-02-20T08:37:58.482Z,17.70
2019-02-20T08:40:26.892Z,16.97
2019-02-20T08:42:58.259Z,16.00
2019-02-20T08:45:32.440Z,14.37
2019-02-20T08:48:03.716Z,14.17
2019-02-20T08:50:32.125Z,14.37
2019-02-20T08:53:00.517Z,16.97
2019-02-20T08:55:33.255Z,15.93
2019-02-20T08:58:04.377Z,16.43
2019-02-20T09:00:35.097Z,13.87
2019-02-20T09:03:06.603Z,14.83
2019-02-20T09:05:34.990Z,11.77
2019-02-20T09:08:03.907Z,12.83
2019-02-20T09:10:32.378Z,18.93
2019-02-20T09:13:05.289Z,13.57
2019-02-20T09:15:36.121Z,12.20
2019-02-20T09:18:10.721Z,12.30
2019-02-20T09:20:39.494Z,11.53
2019-02-20T09:23:08.137Z,12.20
2019-02-20T09:25:41.644Z,11.80
2019-02-20T09:28:12.873Z,11.57
2019-02-20T09:30:44.884Z,12.47
2019-02-20T09:33:13.269Z,10.93
2019-02-20T09:35:44.462Z,12.77
2019-02-20T09:38:12.851Z,11.87
2019-02-20T09:40:43.902Z,11.77
2019-02-20T09:43:13.821Z,11.80
2019-02-20T09:45:44.442Z,11.90
2019-02-20T09:48:13.954Z,12.23
2019-02-20T09:50:42.341Z,12.37
2019-02-20T09:53:13.736Z,11.57
2019-02-20T09:55:51.115Z,11.13
2019-02-20T09:58:20.686Z,10.50
2019-02-20T10:00:50.708Z,11.00
2019-02-20T10:03:21.843Z,10.67
2019-02-20T10:05:50.477Z,11.73
2019-02-20T10:08:21.600Z,11.40
2019-02-20T10:10:50.012Z,11.40
2019-02-20T10:13:20.051Z,11.07
2019-02-20T10:15:51.116Z,10.70
2019-02-20T10:18:19.520Z,10.90
2019-02-20T10:20:48.167Z,10.00
2019-02-20T10:23:18.189Z,9.97
2019-02-20T10:25:49.520Z,10.23
2019-02-20T10:28:20.937Z,10.63
2019-02-20T10:30:49.337Z,10.73
2019-02-20T10:33:33.802Z,10.93
2019-02-20T10:35:55.196Z,11.40
2019-02-20T10:38:26.755Z,11.07
2019-02-20T10:40:55.155Z,10.63
2019-02-20T10:43:23.541Z,10.80
2019-02-20T10:45:58.465Z,11.83
2019-02-20T10:48:29.340Z,12.17
2019-02-20T10:50:58.773Z,11.87
2019-02-20T10:53:33.256Z,12.37
2019-02-20T10:56:09.481Z,12.30
2019-02-20T10:58:39.426Z,11.47
2019-02-20T11:01:19.501Z,12.40
2019-02-20T11:03:46.470Z,12.63
2019-02-20T11:06:17.821Z,12.90
2019-02-20T11:08:52.156Z,12.53
2019-02-20T11:11:25.953Z,11.70
2019-02-20T11:13:54.345Z,12.40
2019-02-20T11:16:27.378Z,12.80
2019-02-20T11:18:57.414Z,12.27
2019-02-20T11:21:28.840Z,14.07
2019-02-20T11:23:57.238Z,12.82
2019-02-20T11:26:27.282Z,11.38
2019-02-20T11:28:58.548Z,12.98
2019-02-20T11:31:29.617Z,13.20
2019-02-20T11:33:59.648Z,13.03
2019-02-20T11:36:32.725Z,10.60
2019-02-20T11:39:06.530Z,11.33
2019-02-20T11:41:34.931Z,11.23
2019-02-20T11:44:03.565Z,11.60
2019-02-20T11:46:34.752Z,11.33
2019-02-20T11:49:03.163Z,11.33
2019-02-20T11:51:43.397Z,11.30
2019-02-20T11:54:19.981Z,10.70
2019-02-20T11:56:54.195Z,11.00
2019-02-20T11:59:25.508Z,11.67
2019-02-20T12:02:10.510Z,11.38
2019-02-20T12:04:39.162Z,10.63
2019-02-20T12:07:08.561Z,12.00
2019-02-20T12:09:39.889Z,11.73
2019-02-20T12:12:11.401Z,12.17
2019-02-20T12:14:44.117Z,11.27
2019-02-20T12:17:14.173Z,11.87
2019-02-20T12:19:51.153Z,11.77
2019-02-20T12:22:22.902Z,11.40
2019-02-20T12:24:54.884Z,12.28
2019-02-20T12:27:26.493Z,11.55
2019-02-20T12:29:57.566Z,11.43
2019-02-20T12:32:25.961Z,10.32
2019-02-20T12:35:07.461Z,11.05
2019-02-20T12:37:33.005Z,12.25
2019-02-20T12:40:01.407Z,10.88
2019-02-20T12:42:34.173Z,11.73
2019-02-20T12:45:02.734Z,11.40
2019-02-20T12:47:34.168Z,11.65
2019-02-20T12:50:05.997Z,11.03
2019-02-20T12:52:34.389Z,11.40
2019-02-20T12:55:05.893Z,11.15
2019-02-20T12:57:35.825Z,10.60
2019-02-20T13:00:07.522Z,11.08
2019-02-20T13:02:42.015Z,10.45
2019-02-20T13:05:10.417Z,10.50
2019-02-20T13:07:38.796Z,10.03
2019-02-20T13:10:09.473Z,9.98
2019-02-20T13:12:37.933Z,11.08
2019-02-20T13:15:09.575Z,10.53
2019-02-20T13:17:37.964Z,7.13
2019-02-20T13:20:08.460Z,6.50
2019-02-20T13:22:36.859Z,6.90
2019-02-20T13:25:08.222Z,6.30
2019-02-20T13:27:37.683Z,6.27
2019-02-20T13:30:15.947Z,6.87
2019-02-20T13:32:43.585Z,7.50
2019-02-20T13:35:15.150Z,7.33
2019-02-20T13:37:43.540Z,7.67
2019-02-20T13:40:17.113Z,8.97
2019-02-20T13:42:45.619Z,8.10
2019-02-20T13:45:14.006Z,8.37
2019-02-20T13:47:42.410Z,8.87
2019-02-20T13:50:12.622Z,8.53
2019-02-20T13:52:52.073Z,9.33
2019-02-20T13:55:19.346Z,9.77
2019-02-20T13:57:51.833Z,10.93
2019-02-20T14:00:21.883Z,10.20
2019-02-20T14:02:52.753Z,9.40
2019-02-20T14:05:22.068Z,8.97
2019-02-20T14:07:50.476Z,9.37
2019-02-20T14:10:19.611Z,9.40
2019-02-20T14:12:50.157Z,9.37
2019-02-20T14:15:20.223Z,8.73
2019-02-20T14:17:51.373Z,9.60
2019-02-20T14:20:32.097Z,7.60
2019-02-20T14:23:03.190Z,8.20
2019-02-20T14:25:31.832Z,7.47
2019-02-20T14:28:03.205Z,7.40
2019-02-20T14:30:35.769Z,7.47
2019-02-20T14:33:04.933Z,7.90
2019-02-20T14:35:34.120Z,7.30
2019-02-20T14:38:04.227Z,7.13
2019-02-20T14:40:33.038Z,7.97
2019-02-20T14:43:01.508Z,8.27
2019-02-20T14:45:35.852Z,8.47
2019-02-20T14:48:05.033Z,7.40
2019-02-20T14:50:33.426Z,8.17
2019-02-20T14:53:01.821Z,8.90
2019-02-20T14:55:30.545Z,8.50
2019-02-20T14:58:00.082Z,8.77
2019-02-20T15:00:28.754Z,7.73
2019-02-20T15:03:01.107Z,8.87
2019-02-20T15:05:30.528Z,8.60
2019-02-20T15:07:59.576Z,8.30
2019-02-20T15:10:27.965Z,8.50
2019-02-20T15:12:56.436Z,8.57
2019-02-20T15:15:25.144Z,8.40
2019-02-20T15:17:53.529Z,8.60
2019-02-20T15:20:21.917Z,8.80
2019-02-20T15:22:51.950Z,9.10
2019-02-20T15:25:23.078Z,9.10
2019-02-20T15:27:51.465Z,8.90
2019-02-20T15:30:21.506Z,8.20
2019-02-20T15:32:51.549Z,8.70
2019-02-20T15:35:21.565Z,8.43
2019-02-20T15:37:49.996Z,8.77
2019-02-20T15:40:24.324Z,7.27
2019-02-20T15:42:52.722Z,7.97
2019-02-20T15:45:22.655Z,8.67
2019-02-20T15:47:51.058Z,8.20
2019-02-20T15:50:25.341Z,9.00
2019-02-20T15:52:59.512Z,9.43
2019-02-20T15:55:28.021Z,9.20
2019-02-20T15:57:58.136Z,8.20
2019-02-20T16:00:32.313Z,8.00
2019-02-20T16:03:02.356Z,8.30
2019-02-20T16:05:36.384Z,8.40
2019-02-20T16:08:07.962Z,8.17
2019-02-20T16:10:36.350Z,7.83
2019-02-20T16:13:05.514Z,9.03
2019-02-20T16:15:34.187Z,8.97
2019-02-20T16:18:03.009Z,7.90
2019-02-20T16:20:33.559Z,8.40
2019-02-20T16:23:01.761Z,7.90
2019-02-20T16:25:38.717Z,8.40
2019-02-20T16:28:07.101Z,9.00
2019-02-20T16:30:36.364Z,7.93
2019-02-20T16:33:04.762Z,7.70
2019-02-20T16:35:40.745Z,8.30
2019-02-20T16:38:09.817Z,8.13
2019-02-20T16:40:39.845Z,7.80
2019-02-20T16:43:08.292Z,9.13
2019-02-20T16:45:37.402Z,8.43
2019-02-20T16:48:05.783Z,8.30
2019-02-20T16:50:34.176Z,8.20
2019-02-20T16:53:08.438Z,8.07
2019-02-20T16:55:37.123Z,7.80
2019-02-20T16:58:11.309Z,7.90
2019-02-20T17:00:42.584Z,7.70
2019-02-20T17:03:12.461Z,7.53
2019-02-20T17:05:41.119Z,7.70
2019-02-20T17:08:10.745Z,7.80
2019-02-20T17:10:41.769Z,7.93
2019-02-20T17:13:10.340Z,7.73
2019-02-20T17:15:38.757Z,7.07
2019-02-20T17:18:07.137Z,7.67
2019-02-20T17:20:35.522Z,7.10
2019-02-20T17:23:07.133Z,7.80
2019-02-20T17:25:35.509Z,7.30
2019-02-20T17:28:06.005Z,7.53
2019-02-20T17:30:39.166Z,6.90
2019-02-20T17:33:13.248Z,7.00
2019-02-20T17:35:42.400Z,7.57
2019-02-20T17:38:14.009Z,7.43
2019-02-20T17:40:44.167Z,7.63
2019-02-20T17:43:12.572Z,8.70
2019-02-20T17:45:40.950Z,8.07
2019-02-20T17:48:10.969Z,8.00
2019-02-20T17:50:39.367Z,8.30
2019-02-20T17:53:09.384Z,7.63
2019-02-20T17:55:40.349Z,8.00
2019-02-20T17:58:14.809Z,8.77
2019-02-20T18:00:39.754Z,8.43
2019-02-20T18:03:12.219Z,9.00
2019-02-20T18:05:40.628Z,8.80
2019-02-20T18:08:09.014Z,9.30
2019-02-20T18:10:40.390Z,9.50
2019-02-20T18:13:10.644Z,8.87
2019-02-20T18:15:40.329Z,8.33
2019-02-20T18:18:10.937Z,7.37
2019-02-20T18:20:39.335Z,8.50
2019-02-20T18:23:13.845Z,8.67
2019-02-20T18:25:42.239Z,9.33
2019-02-20T18:28:23.870Z,9.37
2019-02-20T18:30:45.077Z,9.27
2019-02-20T18:33:22.455Z,8.43
2019-02-20T18:35:58.174Z,9.30
2019-02-20T18:38:24.163Z,8.03
2019-02-20T18:40:52.565Z,8.50
2019-02-20T18:43:26.709Z,9.27
2019-02-20T18:45:55.372Z,8.57
2019-02-20T18:48:28.551Z,9.63
2019-02-20T18:50:59.674Z,10.00
2019-02-20T18:53:30.993Z,8.97
2019-02-20T18:56:00.518Z,10.27
2019-02-20T18:58:35.842Z,8.80
2019-02-20T19:01:04.373Z,8.93
2019-02-20T19:03:41.678Z,10.70
2019-02-20T19:06:14.625Z,10.63
2019-02-20T19:08:46.432Z,10.33
2019-02-20T19:11:29.470Z,10.50
2019-02-20T19:14:17.697Z,10.70
2019-02-20T19:16:51.698Z,10.83
2019-02-20T19:19:49.749Z,10.50
2019-02-20T19:22:36.353Z,10.83
2019-02-20T19:25:19.597Z,11.60
2019-02-20T19:28:00.049Z,10.57
2019-02-20T19:30:46.462Z,11.10
2019-02-20T19:33:43.429Z,11.17
2019-02-20T19:36:39.098Z,12.00
2019-02-20T19:39:21.949Z,11.67
2019-02-20T19:42:15.674Z,13.10
2019-02-20T19:45:17.951Z,11.67
2019-02-20T19:48:06.590Z,12.10
2019-02-20T19:50:49.255Z,12.47
2019-02-20T19:53:23.501Z,11.47
2019-02-20T19:56:00.774Z,12.23
2019-02-20T19:58:40.459Z,11.87
2019-02-20T20:01:32.048Z,12.13
2019-02-20T20:04:05.125Z,13.77
2019-02-20T20:06:55.662Z,12.23
2019-02-20T20:09:32.369Z,12.07
2019-02-20T20:12:26.833Z,11.37
2019-02-20T20:15:13.093Z,12.20
2019-02-20T20:17:59.879Z,13.43
2019-02-20T20:20:34.007Z,14.73
2019-02-20T20:23:35.456Z,14.43
2019-02-20T20:26:19.068Z,13.83
2019-02-20T20:29:12.985Z,12.97
2019-02-20T20:31:44.446Z,14.93
2019-02-20T20:34:34.737Z,15.80
2019-02-20T20:37:22.830Z,14.87
2019-02-20T20:39:56.935Z,14.30
2019-02-20T20:42:36.933Z,14.77
2019-02-20T20:45:20.547Z,13.60
2019-02-20T20:48:12.055Z,12.93
2019-02-20T20:51:02.517Z,12.57
2019-02-20T20:53:48.421Z,12.00
2019-02-20T20:56:57.800Z,12.03
2019-02-20T20:59:25.233Z,13.17
2019-02-20T21:02:08.449Z,11.90
2019-02-20T21:04:42.866Z,12.23
2019-02-20T21:07:26.394Z,13.63
2019-02-20T21:09:57.845Z,13.60
2019-02-20T21:12:50.521Z,13.90
2019-02-20T21:15:35.197Z,14.17
2019-02-20T21:18:21.531Z,13.47
2019-02-20T21:20:56.013Z,13.53
2019-02-20T21:23:58.120Z,14.20
2019-02-20T21:26:32.393Z,14.30
2019-02-20T21:29:09.375Z,15.70
2019-02-20T21:31:53.790Z,15.40
2019-02-20T21:34:45.450Z,13.77
2019-02-20T21:37:35.127Z,14.93
2019-02-20T21:40:39.625Z,14.73
2019-02-20T21:43:31.647Z,15.73
2019-02-20T21:46:12.189Z,15.20
2019-02-20T21:48:46.845Z,14.17
2019-02-20T21:51:23.597Z,15.33
2019-02-20T21:54:01.073Z,14.73
2019-02-20T21:56:47.450Z,14.17
2019-02-20T21:59:27.364Z,15.93
2019-02-20T22:02:08.084Z,15.93
2019-02-20T22:04:45.225Z,15.40
2019-02-20T22:07:34.589Z,15.33
2019-02-20T22:10:17.866Z,15.23
2019-02-20T22:12:51.171Z,14.30
2019-02-20T22:15:28.248Z,15.93
2019-02-20T22:17:59.751Z,15.83
2019-02-20T22:20:53.429Z,18.30
2019-02-20T22:23:41.469Z,16.80
2019-02-20T22:26:18.899Z,15.77
2019-02-20T22:29:07.033Z,16.70
2019-02-20T22:32:00.527Z,17.33
2019-02-20T22:34:53.738Z,17.97
2019-02-20T22:37:47.484Z,17.30
2019-02-20T22:40:24.850Z,18.67
2019-02-20T22:43:28.442Z,16.80
2019-02-20T22:46:05.897Z,16.07
2019-02-20T22:48:54.355Z,16.43
2019-02-20T22:51:37.664Z,17.50
2019-02-20T22:54:14.760Z,19.60
2019-02-20T22:56:58.500Z,19.80
2019-02-20T23:00:01.387Z,19.80
2019-02-20T23:02:44.201Z,18.47
2019-02-20T23:05:41.557Z,18.80
2019-02-20T23:08:29.446Z,18.67
2019-02-20T23:11:35.214Z,16.93
2019-02-20T23:24:46.621Z,16.77
2019-02-20T23:27:15.180Z,17.47
2019-02-20T23:29:44.490Z,15.90
2019-02-20T23:32:18.962Z,15.80
2019-02-20T23:34:47.888Z,16.27
2019-02-20T23:37:19.583Z,16.90
2019-02-20T23:39:57.076Z,16.87
2019-02-20T23:42:28.460Z,17.30
2019-02-20T23:44:57.039Z,18.50
2019-02-20T23:47:28.830Z,17.10
2019-02-20T23:50:00.239Z,18.07
2019-02-20T23:52:33.289Z,18.33
2019-02-20T23:55:22.863Z,20.33
2019-02-20T23:58:02.802Z,18.23
